createdAt,value
2022-11-16T00:04:19.909Z,17.60
2022-11-16T00:09:24.128Z,18.40
2022-11-16T00:14:28.470Z,18.00
2022-11-16T00:19:31.432Z,18.20
2022-11-16T00:24:35.772Z,18.80
2022-11-16T00:29:38.532Z,17.60
2022-11-16T00:34:41.333Z,18.20
2022-11-16T00:39:45.475Z,18.00
2022-11-16T00:44:48.777Z,17.60
2022-11-16T00:49:51.598Z,17.60
2022-11-16T00:54:55.887Z,15.60
2022-11-16T00:59:59.944Z,16.00
2022-11-16T01:05:02.864Z,18.20
2022-11-16T01:10:08.425Z,18.00
2022-11-16T01:15:11.506Z,17.80
2022-11-16T01:20:15.512Z,16.60
2022-11-16T01:25:19.994Z,17.40
2022-11-16T01:30:22.899Z,17.00
2022-11-16T01:35:35.011Z,16.80
2022-11-16T01:40:39.712Z,18.00
2022-11-16T01:45:42.831Z,18.00
2022-11-16T01:50:48.204Z,16.40
2022-11-16T01:55:52.947Z,18.60
2022-11-16T02:01:03.351Z,16.40
2022-11-16T02:06:31.670Z,17.40
2022-11-16T02:12:30.544Z,14.40
2022-11-16T02:17:40.081Z,17.20
2022-11-16T02:22:58.935Z,16.60
2022-11-16T02:28:13.976Z,14.60
2022-11-16T02:33:19.201Z,16.40
2022-11-16T02:38:24.565Z,13.40
2022-11-16T02:43:30.445Z,14.20
2022-11-16T02:48:45.204Z,15.40
2022-11-16T02:53:58.038Z,13.80
2022-11-16T02:59:01.853Z,14.40
2022-11-16T03:04:10.058Z,12.40
2022-11-16T03:09:13.724Z,17.00
2022-11-16T03:14:19.480Z,17.40
2022-11-16T03:19:27.760Z,12.40
2022-11-16T03:24:31.488Z,14.40
2022-11-16T03:29:36.495Z,16.40
2022-11-16T03:34:46.738Z,16.20
2022-11-16T03:39:49.749Z,14.00
2022-11-16T03:44:52.638Z,14.60
2022-11-16T03:49:56.862Z,14.00
2022-11-16T03:55:00.666Z,15.20
2022-11-16T04:00:04.072Z,15.20
2022-11-16T04:05:35.307Z,14.60
2022-11-16T04:10:56.008Z,12.40
2022-11-16T04:16:16.413Z,14.20
2022-11-16T04:21:43.445Z,11.80
2022-11-16T04:27:06.031Z,13.00
2022-11-16T04:32:26.632Z,14.00
2022-11-16T04:37:48.619Z,12.40
2022-11-16T04:42:54.974Z,12.60
2022-11-16T04:47:58.376Z,13.00
2022-11-16T04:53:07.559Z,12.60
2022-11-16T04:58:18.955Z,11.20
2022-11-16T05:03:22.048Z,11.60
2022-11-16T05:08:26.522Z,10.00
2022-11-16T05:13:30.436Z,13.20
2022-11-16T05:18:34.012Z,12.20
2022-11-16T05:23:56.703Z,12.40
2022-11-16T05:29:03.785Z,12.20
2022-11-16T05:34:06.776Z,11.60
2022-11-16T05:39:12.027Z,10.40
2022-11-16T05:44:17.102Z,11.60
2022-11-16T05:49:20.996Z,11.00
2022-11-16T05:54:26.111Z,12.80
2022-11-16T05:59:29.975Z,9.20
2022-11-16T06:04:35.442Z,12.60
2022-11-16T06:09:39.651Z,11.00
2022-11-16T06:14:50.276Z,11.40
2022-11-16T06:19:53.137Z,12.40
2022-11-16T06:24:57.708Z,13.80
2022-11-16T06:30:01.790Z,12.00
2022-11-16T06:35:05.538Z,11.20
2022-11-16T06:40:11.669Z,11.60
2022-11-16T06:45:18.280Z,11.20
2022-11-16T06:50:26.545Z,12.40
2022-11-16T06:55:30.888Z,10.00
2022-11-16T07:00:33.809Z,12.00
2022-11-16T07:05:40.213Z,10.60
2022-11-16T07:10:48.144Z,11.80
2022-11-16T07:15:51.162Z,11.60
2022-11-16T07:20:54.270Z,10.40
2022-11-16T07:26:02.187Z,11.00
2022-11-16T07:31:14.658Z,8.80
2022-11-16T07:36:18.055Z,10.20
2022-11-16T07:41:22.475Z,9.60
2022-11-16T07:46:48.749Z,8.20
2022-11-16T07:51:52.904Z,10.80
2022-11-16T07:57:17.341Z,10.40
2022-11-16T08:02:20.372Z,10.00
2022-11-16T08:07:25.057Z,9.40
2022-11-16T08:12:32.734Z,10.00
2022-11-16T08:17:35.702Z,10.00
2022-11-16T08:22:40.761Z,9.40
2022-11-16T08:27:47.646Z,14.60
2022-11-16T08:32:52.592Z,14.80
2022-11-16T08:37:55.739Z,15.20
2022-11-16T08:43:03.018Z,13.20
2022-11-16T08:48:06.292Z,9.80
2022-11-16T08:53:11.701Z,28.40
2022-11-16T08:58:16.114Z,31.80
2022-11-16T09:03:19.073Z,42.00
2022-11-16T09:08:21.910Z,45.00
2022-11-16T09:13:26.038Z,60.00
2022-11-16T09:18:29.157Z,62.33
2022-11-16T09:23:32.010Z,54.33
2022-11-16T09:28:36.672Z,48.75
2022-11-16T09:33:39.679Z,38.00
2022-11-16T09:44:10.807Z,26.20
2022-11-16T09:49:17.718Z,30.80
2022-11-16T09:54:22.712Z,26.20
2022-11-16T09:59:28.748Z,30.80
2022-11-16T10:04:36.846Z,26.60
2022-11-16T10:09:39.631Z,22.40
2022-11-16T10:15:01.592Z,25.00
2022-11-16T10:20:13.742Z,22.60
2022-11-16T10:25:17.144Z,25.00
2022-11-16T10:30:21.783Z,19.40
2022-11-16T10:35:26.819Z,18.20
2022-11-16T10:40:31.278Z,19.40
2022-11-16T10:45:39.036Z,19.00
2022-11-16T10:50:44.127Z,17.20
2022-11-16T10:55:47.096Z,17.40
2022-11-16T11:00:52.724Z,18.00
2022-11-16T11:05:55.665Z,18.40
2022-11-16T11:11:01.740Z,18.00
2022-11-16T11:16:18.892Z,17.20
2022-11-16T11:21:22.852Z,17.80
2022-11-16T11:26:36.267Z,15.60
2022-11-16T11:31:43.333Z,14.20
2022-11-16T11:36:48.058Z,15.60
2022-11-16T11:42:06.500Z,17.00
2022-11-16T11:52:53.373Z,18.00
2022-11-16T11:57:56.173Z,13.60
2022-11-16T12:03:12.674Z,18.40
2022-11-16T12:08:22.840Z,12.00
2022-11-16T12:13:42.226Z,13.00
2022-11-16T12:18:53.998Z,14.20
2022-11-16T12:24:04.375Z,13.00
2022-11-16T12:29:16.685Z,15.00
2022-11-16T12:34:26.926Z,14.00
2022-11-16T12:39:32.456Z,13.20
2022-11-16T12:44:44.989Z,10.00
2022-11-16T12:50:09.679Z,10.60
2022-11-16T12:55:26.019Z,12.60
2022-11-16T13:00:29.750Z,11.00
2022-11-16T13:05:44.302Z,13.60
2022-11-16T13:10:47.755Z,10.20
2022-11-16T13:15:50.534Z,12.80
2022-11-16T13:20:56.997Z,14.60
2022-11-16T13:26:02.683Z,10.00
2022-11-16T13:31:07.215Z,9.20
2022-11-16T13:36:44.995Z,10.80
2022-11-16T13:41:48.090Z,12.60
2022-11-16T13:46:56.527Z,11.20
2022-11-16T13:52:17.339Z,10.60
2022-11-16T13:57:26.116Z,11.20
2022-11-16T14:02:30.617Z,10.00
2022-11-16T14:07:43.221Z,12.60
2022-11-16T14:12:54.967Z,13.00
2022-11-16T14:18:00.340Z,12.60
2022-11-16T14:23:11.347Z,12.40
2022-11-16T14:28:40.184Z,12.20
2022-11-16T14:33:42.956Z,9.00
2022-11-16T14:38:47.590Z,10.40
2022-11-16T14:43:51.444Z,12.60
2022-11-16T14:48:55.525Z,16.60
2022-11-16T14:54:03.767Z,17.00
2022-11-16T14:59:06.487Z,19.80
2022-11-16T15:04:10.234Z,65.67
2022-11-16T15:09:17.854Z,63.33
2022-11-16T15:14:22.099Z,51.67
2022-11-16T15:19:25.024Z,53.25
2022-11-16T15:24:31.289Z,54.00
2022-11-16T15:29:34.913Z,53.50
2022-11-16T15:34:38.713Z,44.25
2022-11-16T15:39:42.839Z,45.25
2022-11-16T15:44:45.631Z,46.00
2022-11-16T15:49:49.648Z,44.50
2022-11-16T15:55:05.351Z,44.50
2022-11-16T16:00:22.844Z,40.25
2022-11-16T16:05:34.198Z,42.00
2022-11-16T16:10:38.330Z,43.00
2022-11-16T16:15:41.098Z,39.25
2022-11-16T16:20:47.738Z,41.50
2022-11-16T16:25:51.831Z,38.50
2022-11-16T16:30:54.557Z,48.75
2022-11-16T16:35:57.395Z,38.00
2022-11-16T16:41:02.904Z,40.00
2022-11-16T16:46:06.076Z,36.25
2022-11-16T16:51:12.161Z,35.25
2022-11-16T16:56:19.655Z,39.50
2022-11-16T17:01:22.546Z,45.75
2022-11-16T17:06:25.620Z,39.75
2022-11-16T17:11:29.908Z,38.75
2022-11-16T17:16:34.572Z,42.25
2022-11-16T17:21:37.333Z,35.50
2022-11-16T17:26:41.535Z,40.50
2022-11-16T17:31:44.877Z,38.50
2022-11-16T17:36:47.780Z,35.75
2022-11-16T17:41:51.888Z,37.50
2022-11-16T17:46:54.740Z,33.25
2022-11-16T17:51:57.491Z,36.25
2022-11-16T17:57:01.761Z,35.25
2022-11-16T18:02:04.532Z,33.60
2022-11-16T18:07:07.365Z,35.25
2022-11-16T18:12:11.534Z,32.80
2022-11-16T18:17:14.369Z,37.40
2022-11-16T18:22:17.130Z,35.40
2022-11-16T18:27:21.334Z,29.75
2022-11-16T18:32:24.070Z,33.00
2022-11-16T18:37:26.864Z,32.00
2022-11-16T18:42:30.976Z,26.20
2022-11-16T18:47:33.789Z,32.80
2022-11-16T18:52:36.509Z,33.40
2022-11-16T18:57:40.720Z,32.60
2022-11-16T19:02:43.467Z,28.20
2022-11-16T19:07:46.314Z,28.40
2022-11-16T19:12:50.436Z,27.60
2022-11-16T19:18:19.328Z,26.40
2022-11-16T19:23:16.065Z,23.80
2022-11-16T19:28:20.190Z,26.00
2022-11-16T19:33:22.994Z,23.40
2022-11-16T19:38:25.775Z,23.00
2022-11-16T19:43:29.885Z,20.40
2022-11-16T19:48:33.049Z,20.60
2022-11-16T19:53:36.237Z,22.00
2022-11-16T19:58:40.735Z,21.00
2022-11-16T20:03:43.471Z,20.20
2022-11-16T20:08:48.251Z,17.40
2022-11-16T20:13:52.928Z,21.20
2022-11-16T20:18:55.746Z,18.20
2022-11-16T20:24:04.731Z,16.60
2022-11-16T20:29:12.399Z,15.00
2022-11-16T20:34:15.667Z,16.00
2022-11-16T20:39:19.201Z,15.60
2022-11-16T20:44:23.403Z,15.00
2022-11-16T20:49:26.142Z,16.80
2022-11-16T20:54:29.610Z,15.20
2022-11-16T20:59:34.114Z,12.20
2022-11-16T21:04:36.935Z,13.00
2022-11-16T21:09:53.612Z,12.00
2022-11-16T21:14:57.789Z,11.60
2022-11-16T21:20:25.835Z,11.60
2022-11-16T21:25:24.815Z,10.80
2022-11-16T21:30:29.149Z,9.60
2022-11-16T21:35:31.992Z,8.80
2022-11-16T21:40:34.769Z,10.80
2022-11-16T21:45:38.882Z,11.20
2022-11-16T21:50:41.898Z,10.00
2022-11-16T21:55:49.537Z,8.00
2022-11-16T22:00:56.275Z,8.40
2022-11-16T22:06:17.254Z,8.40
2022-11-16T22:11:22.109Z,10.60
2022-11-16T22:16:26.535Z,8.40
2022-11-16T22:21:29.387Z,8.40
2022-11-16T22:26:32.230Z,7.20
2022-11-16T22:31:36.338Z,8.60
2022-11-16T22:36:39.294Z,8.00
2022-11-16T22:41:42.119Z,8.00
2022-11-16T22:46:46.423Z,12.00
2022-11-16T22:51:49.389Z,8.60
2022-11-16T22:56:52.203Z,9.00
2022-11-16T23:01:56.652Z,8.00
2022-11-16T23:07:00.450Z,8.40
2022-11-16T23:12:20.927Z,8.20
2022-11-16T23:17:25.154Z,9.80
2022-11-16T23:22:47.671Z,8.00
2022-11-16T23:27:53.700Z,8.00
2022-11-16T23:32:58.004Z,7.20
2022-11-16T23:38:01.326Z,7.00
2022-11-16T23:43:21.779Z,8.40
2022-11-16T23:48:25.954Z,9.00
2022-11-16T23:53:28.772Z,8.20
2022-11-16T23:58:31.531Z,7.40
